Yeoman, Indiana
Current Conditions -  °F | °C
As of 3:55 PM on Thursday 27 Nov 2014 (Local Time) from KMCX Reporting Station
Overcast Overcast  
Wind Chill: 15°   Ceiling: 2300
Heat Index: 27°   Visibility: 10mi
Dew Point: 19°   Wind: 15mph
Humidity: 73%   Direction: 300°WNW
Pressure: 30.34"   Gusts: NA
Location:  40.67°N, 86.72°W
Report Text: KMCX 272055Z AUTO 30013KT 10SM OVC023 M03/M07 A3034 RMK AO2 T10271070
Loading
Personal Weather Stations






























Interactive Weather Map New forecast layout! Learn more

10-Day Weather Forecast

Advertisements
Track Severe Weather on mobile